sensor_id;sensor_type;location;lat;lon;timestamp;P1;durP1;ratioP1;P2;durP2;ratioP2
21837;SDS011;11081;45.946;6.140;2024-02-26T00:02:22;0.80;;;0.70;;
21837;SDS011;11081;45.946;6.140;2024-02-26T00:04:50;1.67;;;0.60;;
21837;SDS011;11081;45.946;6.140;2024-02-26T00:07:18;0.80;;;0.50;;
21837;SDS011;11081;45.946;6.140;2024-02-26T00:09:46;1.57;;;0.90;;
21837;SDS011;11081;45.946;6.140;2024-02-26T00:12:14;1.23;;;0.40;;
21837;SDS011;11081;45.946;6.140;2024-02-26T00:14:42;1.00;;;0.50;;
21837;SDS011;11081;45.946;6.140;2024-02-26T00:17:13;0.87;;;0.47;;
21837;SDS011;11081;45.946;6.140;2024-02-26T00:19:41;2.77;;;0.70;;
21837;SDS011;11081;45.946;6.140;2024-02-26T00:22:09;1.67;;;0.60;;
21837;SDS011;11081;45.946;6.140;2024-02-26T00:24:37;1.60;;;0.50;;
21837;SDS011;11081;45.946;6.140;2024-02-26T00:27:07;1.27;;;0.43;;
21837;SDS011;11081;45.946;6.140;2024-02-26T00:29:36;1.23;;;0.40;;
21837;SDS011;11081;45.946;6.140;2024-02-26T00:32:04;0.40;;;0.40;;
21837;SDS011;11081;45.946;6.140;2024-02-26T00:34:34;1.70;;;0.40;;
21837;SDS011;11081;45.946;6.140;2024-02-26T00:37:02;0.90;;;0.60;;
21837;SDS011;11081;45.946;6.140;2024-02-26T00:39:31;0.80;;;0.50;;
21837;SDS011;11081;45.946;6.140;2024-02-26T00:41:59;1.10;;;0.33;;
21837;SDS011;11081;45.946;6.140;2024-02-26T00:44:27;0.90;;;0.53;;
21837;SDS011;11081;45.946;6.140;2024-02-26T00:46:55;0.80;;;0.57;;
21837;SDS011;11081;45.946;6.140;2024-02-26T00:49:23;2.17;;;0.50;;
21837;SDS011;11081;45.946;6.140;2024-02-26T00:51:52;0.60;;;0.50;;
21837;SDS011;11081;45.946;6.140;2024-02-26T00:54:21;0.50;;;0.40;;
21837;SDS011;11081;45.946;6.140;2024-02-26T00:56:49;0.43;;;0.33;;
21837;SDS011;11081;45.946;6.140;2024-02-26T00:59:17;0.70;;;0.40;;
21837;SDS011;11081;45.946;6.140;2024-02-26T01:01:45;1.13;;;0.53;;
21837;SDS011;11081;45.946;6.140;2024-02-26T01:04:13;2.27;;;0.80;;
21837;SDS011;11081;45.946;6.140;2024-02-26T01:06:41;1.13;;;0.43;;
21837;SDS011;11081;45.946;6.140;2024-02-26T01:09:11;1.37;;;0.60;;
21837;SDS011;11081;45.946;6.140;2024-02-26T01:11:39;1.10;;;0.50;;
21837;SDS011;11081;45.946;6.140;2024-02-26T01:14:07;1.03;;;0.40;;
21837;SDS011;11081;45.946;6.140;2024-02-26T01:16:36;0.57;;;0.50;;
21837;SDS011;11081;45.946;6.140;2024-02-26T01:19:04;1.23;;;0.50;;
21837;SDS011;11081;45.946;6.140;2024-02-26T01:21:32;1.57;;;0.50;;
21837;SDS011;11081;45.946;6.140;2024-02-26T01:24:00;0.47;;;0.40;;
21837;SDS011;11081;45.946;6.140;2024-02-26T01:26:30;0.97;;;0.60;;
21837;SDS011;11081;45.946;6.140;2024-02-26T01:28:58;2.53;;;0.70;;
21837;SDS011;11081;45.946;6.140;2024-02-26T01:31:26;0.97;;;0.70;;
21837;SDS011;11081;45.946;6.140;2024-02-26T01:33:54;0.63;;;0.47;;
21837;SDS011;11081;45.946;6.140;2024-02-26T01:36:22;0.60;;;0.50;;
21837;SDS011;11081;45.946;6.140;2024-02-26T01:38:50;0.60;;;0.40;;
21837;SDS011;11081;45.946;6.140;2024-02-26T01:41:18;0.37;;;0.33;;
21837;SDS011;11081;45.946;6.140;2024-02-26T01:43:48;0.77;;;0.50;;
21837;SDS011;11081;45.946;6.140;2024-02-26T01:46:16;1.53;;;0.70;;
21837;SDS011;11081;45.946;6.140;2024-02-26T01:48:45;0.60;;;0.40;;
21837;SDS011;11081;45.946;6.140;2024-02-26T01:51:14;0.80;;;0.50;;
21837;SDS011;11081;45.946;6.140;2024-02-26T01:53:44;0.73;;;0.43;;
21837;SDS011;11081;45.946;6.140;2024-02-26T01:56:12;0.57;;;0.50;;
21837;SDS011;11081;45.946;6.140;2024-02-26T01:58:42;0.40;;;0.40;;
21837;SDS011;11081;45.946;6.140;2024-02-26T02:01:12;1.10;;;0.50;;
21837;SDS011;11081;45.946;6.140;2024-02-26T02:03:42;0.63;;;0.40;;
21837;SDS011;11081;45.946;6.140;2024-02-26T02:06:11;0.50;;;0.50;;
21837;SDS011;11081;45.946;6.140;2024-02-26T02:08:40;1.40;;;0.70;;
21837;SDS011;11081;45.946;6.140;2024-02-26T02:11:09;0.47;;;0.40;;
21837;SDS011;11081;45.946;6.140;2024-02-26T02:13:39;0.63;;;0.40;;
21837;SDS011;11081;45.946;6.140;2024-02-26T02:16:07;0.70;;;0.40;;
21837;SDS011;11081;45.946;6.140;2024-02-26T02:18:36;0.50;;;0.40;;
21837;SDS011;11081;45.946;6.140;2024-02-26T02:21:06;0.60;;;0.40;;
21837;SDS011;11081;45.946;6.140;2024-02-26T02:23:34;0.50;;;0.50;;
21837;SDS011;11081;45.946;6.140;2024-02-26T02:26:02;1.17;;;0.60;;
21837;SDS011;11081;45.946;6.140;2024-02-26T02:28:31;0.77;;;0.50;;
21837;SDS011;11081;45.946;6.140;2024-02-26T02:30:59;0.57;;;0.47;;
21837;SDS011;11081;45.946;6.140;2024-02-26T02:33:28;0.70;;;0.40;;
21837;SDS011;11081;45.946;6.140;2024-02-26T02:35:56;1.87;;;0.60;;
21837;SDS011;11081;45.946;6.140;2024-02-26T02:38:26;0.60;;;0.50;;
21837;SDS011;11081;45.946;6.140;2024-02-26T02:40:56;0.80;;;0.50;;
21837;SDS011;11081;45.946;6.140;2024-02-26T02:43:24;0.77;;;0.40;;
21837;SDS011;11081;45.946;6.140;2024-02-26T02:45:52;0.60;;;0.40;;
21837;SDS011;11081;45.946;6.140;2024-02-26T02:48:20;0.50;;;0.47;;
21837;SDS011;11081;45.946;6.140;2024-02-26T02:50:49;0.40;;;0.40;;
21837;SDS011;11081;45.946;6.140;2024-02-26T02:53:17;0.80;;;0.50;;
21837;SDS011;11081;45.946;6.140;2024-02-26T02:55:46;0.40;;;0.40;;
21837;SDS011;11081;45.946;6.140;2024-02-26T02:58:15;0.70;;;0.40;;
21837;SDS011;11081;45.946;6.140;2024-02-26T03:00:43;0.70;;;0.40;;
21837;SDS011;11081;45.946;6.140;2024-02-26T03:03:11;0.70;;;0.50;;
21837;SDS011;11081;45.946;6.140;2024-02-26T03:05:39;0.73;;;0.40;;
21837;SDS011;11081;45.946;6.140;2024-02-26T03:08:07;0.30;;;0.30;;
21837;SDS011;11081;45.946;6.140;2024-02-26T03:10:35;0.53;;;0.40;;
21837;SDS011;11081;45.946;6.140;2024-02-26T03:13:05;0.63;;;0.53;;
21837;SDS011;11081;45.946;6.140;2024-02-26T03:15:33;0.30;;;0.30;;
21837;SDS011;11081;45.946;6.140;2024-02-26T03:18:01;0.30;;;0.30;;
21837;SDS011;11081;45.946;6.140;2024-02-26T03:20:30;0.50;;;0.30;;
21837;SDS011;11081;45.946;6.140;2024-02-26T03:22:58;0.60;;;0.50;;
21837;SDS011;11081;45.946;6.140;2024-02-26T03:25:26;1.47;;;0.40;;
21837;SDS011;11081;45.946;6.140;2024-02-26T03:27:54;0.77;;;0.53;;
21837;SDS011;11081;45.946;6.140;2024-02-26T03:30:24;1.63;;;0.50;;
21837;SDS011;11081;45.946;6.140;2024-02-26T03:32:52;0.40;;;0.40;;
21837;SDS011;11081;45.946;6.140;2024-02-26T03:35:20;0.50;;;0.47;;
21837;SDS011;11081;45.946;6.140;2024-02-26T03:37:48;0.50;;;0.40;;
21837;SDS011;11081;45.946;6.140;2024-02-26T03:40:18;0.30;;;0.30;;
21837;SDS011;11081;45.946;6.140;2024-02-26T03:42:46;0.40;;;0.30;;
21837;SDS011;11081;45.946;6.140;2024-02-26T03:45:14;0.70;;;0.43;;
21837;SDS011;11081;45.946;6.140;2024-02-26T03:47:44;1.07;;;0.47;;
21837;SDS011;11081;45.946;6.140;2024-02-26T03:50:12;1.20;;;0.50;;
21837;SDS011;11081;45.946;6.140;2024-02-26T03:52:40;0.40;;;0.40;;
21837;SDS011;11081;45.946;6.140;2024-02-26T03:55:09;0.80;;;0.50;;
21837;SDS011;11081;45.946;6.140;2024-02-26T03:57:37;1.23;;;0.30;;
21837;SDS011;11081;45.946;6.140;2024-02-26T04:00:06;0.50;;;0.30;;
21837;SDS011;11081;45.946;6.140;2024-02-26T04:02:38;0.57;;;0.30;;
21837;SDS011;11081;45.946;6.140;2024-02-26T04:05:10;0.30;;;0.30;;
21837;SDS011;11081;45.946;6.140;2024-02-26T04:07:39;0.93;;;0.37;;
21837;SDS011;11081;45.946;6.140;2024-02-26T04:10:10;0.57;;;0.33;;
21837;SDS011;11081;45.946;6.140;2024-02-26T04:12:38;0.50;;;0.33;;
21837;SDS011;11081;45.946;6.140;2024-02-26T04:15:08;0.87;;;0.37;;
21837;SDS011;11081;45.946;6.140;2024-02-26T04:17:37;0.53;;;0.30;;
21837;SDS011;11081;45.946;6.140;2024-02-26T04:20:06;0.53;;;0.50;;
21837;SDS011;11081;45.946;6.140;2024-02-26T04:22:37;0.30;;;0.30;;
21837;SDS011;11081;45.946;6.140;2024-02-26T04:25:05;0.60;;;0.40;;
21837;SDS011;11081;45.946;6.140;2024-02-26T04:27:34;0.47;;;0.40;;
21837;SDS011;11081;45.946;6.140;2024-02-26T04:30:02;0.40;;;0.30;;
21837;SDS011;11081;45.946;6.140;2024-02-26T04:32:31;0.63;;;0.30;;
21837;SDS011;11081;45.946;6.140;2024-02-26T04:35:00;0.40;;;0.20;;
21837;SDS011;11081;45.946;6.140;2024-02-26T04:37:29;0.40;;;0.30;;
21837;SDS011;11081;45.946;6.140;2024-02-26T04:39:59;0.57;;;0.40;;
21837;SDS011;11081;45.946;6.140;2024-02-26T04:42:29;0.30;;;0.30;;
21837;SDS011;11081;45.946;6.140;2024-02-26T04:44:57;1.07;;;0.30;;
21837;SDS011;11081;45.946;6.140;2024-02-26T04:47:26;0.33;;;0.33;;
21837;SDS011;11081;45.946;6.140;2024-02-26T04:49:54;0.30;;;0.30;;
21837;SDS011;11081;45.946;6.140;2024-02-26T04:52:22;0.33;;;0.30;;
21837;SDS011;11081;45.946;6.140;2024-02-26T04:54:49;0.80;;;0.40;;
21837;SDS011;11081;45.946;6.140;2024-02-26T04:57:18;0.20;;;0.20;;
21837;SDS011;11081;45.946;6.140;2024-02-26T04:59:47;0.73;;;0.40;;
21837;SDS011;11081;45.946;6.140;2024-02-26T05:02:15;0.40;;;0.40;;
21837;SDS011;11081;45.946;6.140;2024-02-26T05:04:43;0.93;;;0.40;;
21837;SDS011;11081;45.946;6.140;2024-02-26T05:07:11;0.43;;;0.40;;
21837;SDS011;11081;45.946;6.140;2024-02-26T05:09:40;0.53;;;0.40;;
21837;SDS011;11081;45.946;6.140;2024-02-26T05:12:08;1.90;;;0.60;;
21837;SDS011;11081;45.946;6.140;2024-02-26T05:14:38;0.20;;;0.20;;
21837;SDS011;11081;45.946;6.140;2024-02-26T05:17:07;0.43;;;0.40;;
21837;SDS011;11081;45.946;6.140;2024-02-26T05:19:35;0.67;;;0.40;;
21837;SDS011;11081;45.946;6.140;2024-02-26T05:22:03;1.20;;;0.30;;
21837;SDS011;11081;45.946;6.140;2024-02-26T05:24:31;1.10;;;0.30;;
21837;SDS011;11081;45.946;6.140;2024-02-26T05:26:59;0.50;;;0.30;;
21837;SDS011;11081;45.946;6.140;2024-02-26T05:29:28;0.20;;;0.10;;
21837;SDS011;11081;45.946;6.140;2024-02-26T05:31:57;0.50;;;0.40;;
21837;SDS011;11081;45.946;6.140;2024-02-26T05:34:26;0.30;;;0.23;;
21837;SDS011;11081;45.946;6.140;2024-02-26T05:36:54;0.30;;;0.30;;
21837;SDS011;11081;45.946;6.140;2024-02-26T05:39:22;0.20;;;0.20;;
21837;SDS011;11081;45.946;6.140;2024-02-26T05:41:50;0.60;;;0.40;;
21837;SDS011;11081;45.946;6.140;2024-02-26T05:44:18;0.40;;;0.30;;
21837;SDS011;11081;45.946;6.140;2024-02-26T05:46:46;2.03;;;0.37;;
21837;SDS011;11081;45.946;6.140;2024-02-26T05:49:16;0.50;;;0.47;;
21837;SDS011;11081;45.946;6.140;2024-02-26T05:51:44;0.67;;;0.40;;
21837;SDS011;11081;45.946;6.140;2024-02-26T05:54:12;0.30;;;0.27;;
21837;SDS011;11081;45.946;6.140;2024-02-26T05:56:40;2.28;;;0.38;;
21837;SDS011;11081;45.946;6.140;2024-02-26T05:59:09;0.70;;;0.50;;
21837;SDS011;11081;45.946;6.140;2024-02-26T06:01:37;0.43;;;0.30;;
21837;SDS011;11081;45.946;6.140;2024-02-26T06:04:05;1.70;;;0.40;;
21837;SDS011;11081;45.946;6.140;2024-02-26T06:06:34;0.87;;;0.50;;
21837;SDS011;11081;45.946;6.140;2024-02-26T06:09:07;0.40;;;0.40;;
21837;SDS011;11081;45.946;6.140;2024-02-26T06:11:37;0.60;;;0.40;;
21837;SDS011;11081;45.946;6.140;2024-02-26T06:14:05;0.87;;;0.50;;
21837;SDS011;11081;45.946;6.140;2024-02-26T06:16:33;0.40;;;0.40;;
21837;SDS011;11081;45.946;6.140;2024-02-26T06:19:01;0.87;;;0.57;;
21837;SDS011;11081;45.946;6.140;2024-02-26T06:21:30;0.83;;;0.63;;
21837;SDS011;11081;45.946;6.140;2024-02-26T06:23:59;0.63;;;0.43;;
21837;SDS011;11081;45.946;6.140;2024-02-26T06:26:28;0.70;;;0.40;;
21837;SDS011;11081;45.946;6.140;2024-02-26T06:28:56;0.60;;;0.40;;
21837;SDS011;11081;45.946;6.140;2024-02-26T06:31:24;2.00;;;0.43;;
21837;SDS011;11081;45.946;6.140;2024-02-26T06:33:54;1.37;;;0.73;;
21837;SDS011;11081;45.946;6.140;2024-02-26T06:36:23;7.40;;;0.60;;
21837;SDS011;11081;45.946;6.140;2024-02-26T06:38:52;0.60;;;0.50;;
21837;SDS011;11081;45.946;6.140;2024-02-26T06:41:22;0.90;;;0.50;;
21837;SDS011;11081;45.946;6.140;2024-02-26T06:43:53;0.83;;;0.60;;
21837;SDS011;11081;45.946;6.140;2024-02-26T06:46:22;2.27;;;0.80;;
21837;SDS011;11081;45.946;6.140;2024-02-26T06:48:50;1.03;;;0.47;;
21837;SDS011;11081;45.946;6.140;2024-02-26T06:51:21;1.57;;;0.77;;
21837;SDS011;11081;45.946;6.140;2024-02-26T06:53:49;0.70;;;0.60;;
21837;SDS011;11081;45.946;6.140;2024-02-26T06:56:18;3.50;;;1.03;;
21837;SDS011;11081;45.946;6.140;2024-02-26T06:58:47;1.17;;;0.53;;
21837;SDS011;11081;45.946;6.140;2024-02-26T07:01:15;0.70;;;0.53;;
21837;SDS011;11081;45.946;6.140;2024-02-26T07:03:43;0.60;;;0.47;;
21837;SDS011;11081;45.946;6.140;2024-02-26T07:06:12;0.90;;;0.40;;
21837;SDS011;11081;45.946;6.140;2024-02-26T07:08:40;1.23;;;0.60;;
21837;SDS011;11081;45.946;6.140;2024-02-26T07:11:08;2.10;;;0.60;;
21837;SDS011;11081;45.946;6.140;2024-02-26T07:13:38;1.97;;;0.93;;
21837;SDS011;11081;45.946;6.140;2024-02-26T07:16:08;1.40;;;0.90;;
21837;SDS011;11081;45.946;6.140;2024-02-26T07:18:37;5.10;;;2.13;;
21837;SDS011;11081;45.946;6.140;2024-02-26T07:21:05;7.10;;;2.90;;
21837;SDS011;11081;45.946;6.140;2024-02-26T07:23:33;5.80;;;2.20;;
21837;SDS011;11081;45.946;6.140;2024-02-26T07:26:01;1.45;;;1.17;;
21837;SDS011;11081;45.946;6.140;2024-02-26T07:28:29;2.03;;;1.10;;
21837;SDS011;11081;45.946;6.140;2024-02-26T07:30:58;1.50;;;0.70;;
21837;SDS011;11081;45.946;6.140;2024-02-26T07:33:27;0.77;;;0.60;;
21837;SDS011;11081;45.946;6.140;2024-02-26T07:35:55;0.77;;;0.45;;
21837;SDS011;11081;45.946;6.140;2024-02-26T07:38:23;0.77;;;0.40;;
21837;SDS011;11081;45.946;6.140;2024-02-26T07:41:07;0.90;;;0.70;;
21837;SDS011;11081;45.946;6.140;2024-02-26T07:43:36;2.37;;;0.53;;
21837;SDS011;11081;45.946;6.140;2024-02-26T07:46:04;1.13;;;0.50;;
21837;SDS011;11081;45.946;6.140;2024-02-26T07:48:33;0.90;;;0.50;;
21837;SDS011;11081;45.946;6.140;2024-02-26T07:51:02;1.37;;;0.73;;
21837;SDS011;11081;45.946;6.140;2024-02-26T07:53:31;2.00;;;0.90;;
21837;SDS011;11081;45.946;6.140;2024-02-26T07:55:59;1.10;;;0.80;;
21837;SDS011;11081;45.946;6.140;2024-02-26T07:58:27;1.00;;;0.63;;
21837;SDS011;11081;45.946;6.140;2024-02-26T08:00:55;0.40;;;0.30;;
21837;SDS011;11081;45.946;6.140;2024-02-26T08:03:23;0.20;;;0.20;;
21837;SDS011;11081;45.946;6.140;2024-02-26T08:05:53;0.33;;;0.33;;
21837;SDS011;11081;45.946;6.140;2024-02-26T08:08:22;0.50;;;0.20;;
21837;SDS011;11081;45.946;6.140;2024-02-26T08:10:50;1.77;;;0.70;;
21837;SDS011;11081;45.946;6.140;2024-02-26T08:13:18;0.50;;;0.30;;
21837;SDS011;11081;45.946;6.140;2024-02-26T08:15:46;0.53;;;0.20;;
21837;SDS011;11081;45.946;6.140;2024-02-26T08:18:14;0.52;;;0.30;;
21837;SDS011;11081;45.946;6.140;2024-02-26T08:20:42;0.20;;;0.20;;
21837;SDS011;11081;45.946;6.140;2024-02-26T08:23:12;0.88;;;0.40;;
21837;SDS011;11081;45.946;6.140;2024-02-26T08:25:40;0.60;;;0.35;;
21837;SDS011;11081;45.946;6.140;2024-02-26T08:28:08;0.20;;;0.20;;
21837;SDS011;11081;45.946;6.140;2024-02-26T08:30:37;0.60;;;0.30;;
21837;SDS011;11081;45.946;6.140;2024-02-26T08:33:05;0.70;;;0.47;;
21837;SDS011;11081;45.946;6.140;2024-02-26T08:35:34;0.47;;;0.40;;
21837;SDS011;11081;45.946;6.140;2024-02-26T08:38:02;0.47;;;0.40;;
21837;SDS011;11081;45.946;6.140;2024-02-26T08:40:31;0.70;;;0.35;;
21837;SDS011;11081;45.946;6.140;2024-02-26T08:42:59;0.80;;;0.30;;
21837;SDS011;11081;45.946;6.140;2024-02-26T08:45:27;0.80;;;0.40;;
21837;SDS011;11081;45.946;6.140;2024-02-26T08:47:56;0.93;;;0.43;;
21837;SDS011;11081;45.946;6.140;2024-02-26T08:50:25;4.70;;;0.40;;
21837;SDS011;11081;45.946;6.140;2024-02-26T08:52:53;2.92;;;1.17;;
21837;SDS011;11081;45.946;6.140;2024-02-26T08:55:22;3.67;;;2.60;;
21837;SDS011;11081;45.946;6.140;2024-02-26T08:57:51;4.22;;;1.85;;
21837;SDS011;11081;45.946;6.140;2024-02-26T09:00:20;2.97;;;1.80;;
21837;SDS011;11081;45.946;6.140;2024-02-26T09:02:48;4.43;;;1.10;;
21837;SDS011;11081;45.946;6.140;2024-02-26T09:05:16;2.47;;;1.23;;
21837;SDS011;11081;45.946;6.140;2024-02-26T09:07:44;3.58;;;1.58;;
21837;SDS011;11081;45.946;6.140;2024-02-26T09:10:14;3.72;;;1.60;;
21837;SDS011;11081;45.946;6.140;2024-02-26T09:12:42;3.50;;;1.30;;
21837;SDS011;11081;45.946;6.140;2024-02-26T09:15:11;1.70;;;1.02;;
21837;SDS011;11081;45.946;6.140;2024-02-26T09:17:39;1.60;;;0.90;;
21837;SDS011;11081;45.946;6.140;2024-02-26T09:20:08;1.20;;;0.88;;
21837;SDS011;11081;45.946;6.140;2024-02-26T09:22:36;0.88;;;0.57;;
21837;SDS011;11081;45.946;6.140;2024-02-26T09:25:05;3.05;;;1.13;;
21837;SDS011;11081;45.946;6.140;2024-02-26T09:27:34;1.92;;;1.30;;
21837;SDS011;11081;45.946;6.140;2024-02-26T09:30:06;3.53;;;1.00;;
21837;SDS011;11081;45.946;6.140;2024-02-26T09:32:36;2.90;;;0.93;;
21837;SDS011;11081;45.946;6.140;2024-02-26T09:35:05;2.65;;;1.02;;
21837;SDS011;11081;45.946;6.140;2024-02-26T09:37:33;2.53;;;1.10;;
21837;SDS011;11081;45.946;6.140;2024-02-26T09:40:03;1.75;;;1.33;;
21837;SDS011;11081;45.946;6.140;2024-02-26T09:42:32;2.35;;;1.15;;
21837;SDS011;11081;45.946;6.140;2024-02-26T09:45:04;1.25;;;0.77;;
21837;SDS011;11081;45.946;6.140;2024-02-26T09:47:36;3.45;;;1.13;;
21837;SDS011;11081;45.946;6.140;2024-02-26T09:50:06;1.35;;;1.00;;
21837;SDS011;11081;45.946;6.140;2024-02-26T09:52:39;1.30;;;1.08;;
21837;SDS011;11081;45.946;6.140;2024-02-26T09:55:08;1.35;;;1.02;;
21837;SDS011;11081;45.946;6.140;2024-02-26T09:57:37;1.73;;;1.02;;
21837;SDS011;11081;45.946;6.140;2024-02-26T10:00:06;2.92;;;1.23;;
21837;SDS011;11081;45.946;6.140;2024-02-26T10:02:39;1.20;;;0.80;;
21837;SDS011;11081;45.946;6.140;2024-02-26T10:05:08;2.67;;;1.20;;
21837;SDS011;11081;45.946;6.140;2024-02-26T10:07:40;3.10;;;1.58;;
21837;SDS011;11081;45.946;6.140;2024-02-26T10:10:09;2.30;;;1.50;;
21837;SDS011;11081;45.946;6.140;2024-02-26T10:12:38;4.20;;;1.50;;
21837;SDS011;11081;45.946;6.140;2024-02-26T10:15:06;2.92;;;0.95;;
21837;SDS011;11081;45.946;6.140;2024-02-26T10:17:35;2.28;;;0.80;;
21837;SDS011;11081;45.946;6.140;2024-02-26T10:20:12;1.13;;;0.60;;
21837;SDS011;11081;45.946;6.140;2024-02-26T10:22:43;2.63;;;0.90;;
21837;SDS011;11081;45.946;6.140;2024-02-26T10:25:11;1.20;;;0.80;;
21837;SDS011;11081;45.946;6.140;2024-02-26T10:27:40;1.98;;;1.08;;
21837;SDS011;11081;45.946;6.140;2024-02-26T10:30:18;2.42;;;0.88;;
21837;SDS011;11081;45.946;6.140;2024-02-26T10:32:49;5.05;;;1.10;;
21837;SDS011;11081;45.946;6.140;2024-02-26T10:35:19;3.10;;;1.35;;
21837;SDS011;11081;45.946;6.140;2024-02-26T10:37:48;1.23;;;0.70;;
21837;SDS011;11081;45.946;6.140;2024-02-26T10:40:17;1.33;;;0.90;;
21837;SDS011;11081;45.946;6.140;2024-02-26T10:42:45;1.77;;;1.00;;
21837;SDS011;11081;45.946;6.140;2024-02-26T10:45:13;1.08;;;0.75;;
21837;SDS011;11081;45.946;6.140;2024-02-26T10:47:41;2.08;;;1.08;;
21837;SDS011;11081;45.946;6.140;2024-02-26T10:50:10;1.35;;;0.70;;
21837;SDS011;11081;45.946;6.140;2024-02-26T10:52:42;2.08;;;1.10;;
21837;SDS011;11081;45.946;6.140;2024-02-26T10:55:13;1.33;;;0.73;;
21837;SDS011;11081;45.946;6.140;2024-02-26T10:57:45;1.73;;;0.80;;
21837;SDS011;11081;45.946;6.140;2024-02-26T11:00:13;1.70;;;0.73;;
21837;SDS011;11081;45.946;6.140;2024-02-26T11:02:43;1.27;;;0.80;;
21837;SDS011;11081;45.946;6.140;2024-02-26T11:05:13;1.77;;;0.85;;
21837;SDS011;11081;45.946;6.140;2024-02-26T11:07:43;2.33;;;0.90;;
21837;SDS011;11081;45.946;6.140;2024-02-26T11:10:13;4.18;;;0.70;;
21837;SDS011;11081;45.946;6.140;2024-02-26T11:12:43;2.75;;;0.70;;
21837;SDS011;11081;45.946;6.140;2024-02-26T11:15:12;3.28;;;0.63;;
21837;SDS011;11081;45.946;6.140;2024-02-26T11:17:41;1.92;;;0.82;;
21837;SDS011;11081;45.946;6.140;2024-02-26T11:20:11;0.80;;;0.52;;
21837;SDS011;11081;45.946;6.140;2024-02-26T11:22:41;1.55;;;0.65;;
21837;SDS011;11081;45.946;6.140;2024-02-26T11:25:11;2.03;;;0.60;;
21837;SDS011;11081;45.946;6.140;2024-02-26T11:27:41;1.67;;;0.93;;
21837;SDS011;11081;45.946;6.140;2024-02-26T11:30:12;1.23;;;0.73;;
21837;SDS011;11081;45.946;6.140;2024-02-26T11:32:43;3.15;;;0.90;;
21837;SDS011;11081;45.946;6.140;2024-02-26T11:35:13;1.77;;;0.63;;
21837;SDS011;11081;45.946;6.140;2024-02-26T11:37:51;1.38;;;0.63;;
21837;SDS011;11081;45.946;6.140;2024-02-26T11:40:21;1.25;;;0.50;;
21837;SDS011;11081;45.946;6.140;2024-02-26T11:42:51;0.80;;;0.68;;
21837;SDS011;11081;45.946;6.140;2024-02-26T11:48:16;1.25;;;0.80;;
21837;SDS011;11081;45.946;6.140;2024-02-26T11:50:49;1.73;;;0.57;;
21837;SDS011;11081;45.946;6.140;2024-02-26T11:53:21;1.80;;;0.70;;
21837;SDS011;11081;45.946;6.140;2024-02-26T11:58:59;0.95;;;0.60;;
21837;SDS011;11081;45.946;6.140;2024-02-26T12:01:35;0.88;;;0.52;;
21837;SDS011;11081;45.946;6.140;2024-02-26T12:04:04;0.55;;;0.40;;
21837;SDS011;11081;45.946;6.140;2024-02-26T12:06:40;0.90;;;0.50;;
21837;SDS011;11081;45.946;6.140;2024-02-26T12:09:10;1.35;;;0.73;;
21837;SDS011;11081;45.946;6.140;2024-02-26T12:11:41;0.98;;;0.38;;
21837;SDS011;11081;45.946;6.140;2024-02-26T12:14:10;0.52;;;0.43;;
21837;SDS011;11081;45.946;6.140;2024-02-26T12:16:39;2.15;;;0.80;;
21837;SDS011;11081;45.946;6.140;2024-02-26T12:19:09;1.17;;;0.70;;
21837;SDS011;11081;45.946;6.140;2024-02-26T12:21:37;2.17;;;0.70;;
21837;SDS011;11081;45.946;6.140;2024-02-26T12:24:09;0.70;;;0.50;;
21837;SDS011;11081;45.946;6.140;2024-02-26T12:26:40;2.47;;;0.75;;
21837;SDS011;11081;45.946;6.140;2024-02-26T12:29:09;2.75;;;0.57;;
21837;SDS011;11081;45.946;6.140;2024-02-26T12:31:37;0.80;;;0.35;;
21837;SDS011;11081;45.946;6.140;2024-02-26T12:34:07;1.48;;;0.80;;
21837;SDS011;11081;45.946;6.140;2024-02-26T12:36:37;1.45;;;0.88;;
21837;SDS011;11081;45.946;6.140;2024-02-26T12:39:07;1.92;;;0.60;;
21837;SDS011;11081;45.946;6.140;2024-02-26T12:41:37;1.40;;;0.60;;
21837;SDS011;11081;45.946;6.140;2024-02-26T12:44:08;1.00;;;0.68;;
21837;SDS011;11081;45.946;6.140;2024-02-26T12:46:36;3.28;;;0.90;;
21837;SDS011;11081;45.946;6.140;2024-02-26T12:49:04;1.45;;;0.60;;
21837;SDS011;11081;45.946;6.140;2024-02-26T12:51:33;1.38;;;0.63;;
21837;SDS011;11081;45.946;6.140;2024-02-26T12:54:01;1.05;;;0.60;;
21837;SDS011;11081;45.946;6.140;2024-02-26T12:56:29;1.52;;;0.60;;
21837;SDS011;11081;45.946;6.140;2024-02-26T12:58:58;1.73;;;0.73;;
21837;SDS011;11081;45.946;6.140;2024-02-26T13:01:28;2.10;;;0.50;;
21837;SDS011;11081;45.946;6.140;2024-02-26T13:03:57;0.90;;;0.45;;
21837;SDS011;11081;45.946;6.140;2024-02-26T13:06:27;0.77;;;0.50;;
21837;SDS011;11081;45.946;6.140;2024-02-26T13:08:56;0.63;;;0.40;;
21837;SDS011;11081;45.946;6.140;2024-02-26T13:11:25;2.05;;;0.43;;
21837;SDS011;11081;45.946;6.140;2024-02-26T13:13:55;1.02;;;0.70;;
21837;SDS011;11081;45.946;6.140;2024-02-26T13:16:24;1.00;;;0.70;;
21837;SDS011;11081;45.946;6.140;2024-02-26T13:18:54;1.23;;;0.50;;
21837;SDS011;11081;45.946;6.140;2024-02-26T13:21:22;0.88;;;0.50;;
21837;SDS011;11081;45.946;6.140;2024-02-26T13:23:52;1.15;;;0.60;;
21837;SDS011;11081;45.946;6.140;2024-02-26T13:26:21;0.43;;;0.30;;
21837;SDS011;11081;45.946;6.140;2024-02-26T13:28:59;1.23;;;0.30;;
21837;SDS011;11081;45.946;6.140;2024-02-26T13:31:27;1.20;;;0.43;;
21837;SDS011;11081;45.946;6.140;2024-02-26T13:33:57;4.25;;;0.68;;
21837;SDS011;11081;45.946;6.140;2024-02-26T13:36:25;0.70;;;0.50;;
21837;SDS011;11081;45.946;6.140;2024-02-26T13:38:54;1.67;;;0.60;;
21837;SDS011;11081;45.946;6.140;2024-02-26T13:41:23;0.70;;;0.40;;
21837;SDS011;11081;45.946;6.140;2024-02-26T13:43:51;0.80;;;0.60;;
21837;SDS011;11081;45.946;6.140;2024-02-26T13:46:19;0.75;;;0.45;;
21837;SDS011;11081;45.946;6.140;2024-02-26T13:48:47;1.75;;;0.47;;
21837;SDS011;11081;45.946;6.140;2024-02-26T13:51:16;0.57;;;0.45;;
21837;SDS011;11081;45.946;6.140;2024-02-26T13:53:45;0.95;;;0.50;;
21837;SDS011;11081;45.946;6.140;2024-02-26T13:56:13;0.70;;;0.45;;
21837;SDS011;11081;45.946;6.140;2024-02-26T13:58:41;1.35;;;0.60;;
21837;SDS011;11081;45.946;6.140;2024-02-26T14:01:09;0.98;;;0.50;;
21837;SDS011;11081;45.946;6.140;2024-02-26T14:03:37;3.63;;;0.50;;
21837;SDS011;11081;45.946;6.140;2024-02-26T14:06:05;0.73;;;0.50;;
21837;SDS011;11081;45.946;6.140;2024-02-26T14:08:35;2.60;;;0.57;;
21837;SDS011;11081;45.946;6.140;2024-02-26T14:11:03;1.40;;;0.50;;
21837;SDS011;11081;45.946;6.140;2024-02-26T14:13:31;2.33;;;0.55;;
21837;SDS011;11081;45.946;6.140;2024-02-26T14:16:04;0.80;;;0.52;;
21837;SDS011;11081;45.946;6.140;2024-02-26T14:18:32;0.68;;;0.43;;
21837;SDS011;11081;45.946;6.140;2024-02-26T14:21:00;0.88;;;0.40;;
21837;SDS011;11081;45.946;6.140;2024-02-26T14:23:28;1.77;;;0.80;;
21837;SDS011;11081;45.946;6.140;2024-02-26T14:25:57;0.75;;;0.57;;
21837;SDS011;11081;45.946;6.140;2024-02-26T14:28:26;1.38;;;0.75;;
21837;SDS011;11081;45.946;6.140;2024-02-26T14:31:02;2.38;;;0.40;;
21837;SDS011;11081;45.946;6.140;2024-02-26T14:33:32;0.95;;;0.50;;
21837;SDS011;11081;45.946;6.140;2024-02-26T14:36:01;0.30;;;0.30;;
21837;SDS011;11081;45.946;6.140;2024-02-26T14:38:29;2.47;;;0.55;;
21837;SDS011;11081;45.946;6.140;2024-02-26T14:40:58;0.65;;;0.50;;
21837;SDS011;11081;45.946;6.140;2024-02-26T14:43:26;1.45;;;0.73;;
21837;SDS011;11081;45.946;6.140;2024-02-26T14:45:55;0.30;;;0.30;;
21837;SDS011;11081;45.946;6.140;2024-02-26T14:48:23;0.40;;;0.30;;
21837;SDS011;11081;45.946;6.140;2024-02-26T14:50:52;0.17;;;0.17;;
21837;SDS011;11081;45.946;6.140;2024-02-26T14:53:20;0.75;;;0.40;;
21837;SDS011;11081;45.946;6.140;2024-02-26T14:55:48;1.02;;;0.40;;
21837;SDS011;11081;45.946;6.140;2024-02-26T14:58:18;1.17;;;0.32;;
21837;SDS011;11081;45.946;6.140;2024-02-26T15:00:46;1.88;;;0.35;;
21837;SDS011;11081;45.946;6.140;2024-02-26T15:03:14;1.05;;;0.38;;
21837;SDS011;11081;45.946;6.140;2024-02-26T15:05:46;0.70;;;0.30;;